createdAt,value
2022-08-10T00:01:54.972Z,99349.11
2022-08-10T00:04:27.057Z,99347.27
2022-08-10T00:06:56.279Z,99344.61
2022-08-10T00:09:26.189Z,99345.54
2022-08-10T00:11:54.941Z,99344.52
2022-08-10T00:14:23.675Z,99339.45
2022-08-10T00:16:52.425Z,99342.23
2022-08-10T00:19:21.217Z,99340.53
2022-08-10T00:21:51.607Z,99341.16
2022-08-10T00:24:20.523Z,99340.91
2022-08-10T00:27:52.459Z,99341.33
2022-08-10T00:29:38.312Z,99342.41
2022-08-10T00:32:07.781Z,99338.56
2022-08-10T00:34:36.551Z,99338.83
2022-08-10T00:37:05.595Z,99339.37
2022-08-10T00:39:36.306Z,99337.67
2022-08-10T00:42:08.385Z,99337.17
2022-08-10T00:44:39.937Z,99335.83
2022-08-10T00:47:21.333Z,99335.02
2022-08-10T00:49:59.279Z,99335.80
2022-08-10T00:52:29.831Z,99336.42
2022-08-10T00:54:58.835Z,99332.06
2022-08-10T00:57:28.320Z,99335.57
2022-08-10T00:59:58.468Z,99331.48
2022-08-10T01:02:31.162Z,99329.61
2022-08-10T01:05:02.902Z,99331.16
2022-08-10T01:07:55.980Z,99326.08
2022-08-10T01:10:38.389Z,99331.70
2022-08-10T01:13:20.874Z,99337.14
2022-08-10T01:15:56.635Z,99334.55
2022-08-10T01:18:38.113Z,99335.14
2022-08-10T01:21:36.758Z,99336.32
2022-08-10T01:24:39.293Z,99335.51
2022-08-10T01:27:27.279Z,99333.46
2022-08-10T01:30:00.929Z,99331.59
2022-08-10T01:32:47.547Z,99331.28
2022-08-10T01:35:24.353Z,99332.73
2022-08-10T01:38:05.989Z,99330.00
2022-08-10T01:40:37.344Z,99330.41
2022-08-10T01:43:10.484Z,99332.51
2022-08-10T01:45:45.294Z,99331.25
2022-08-10T01:48:31.406Z,99331.96
2022-08-10T01:51:09.355Z,99328.62
2022-08-10T01:53:43.016Z,99331.05
2022-08-10T01:56:18.884Z,99331.08
2022-08-10T01:58:52.181Z,99334.20
2022-08-10T02:01:24.018Z,99334.15
2022-08-10T02:04:03.479Z,99335.74
2022-08-10T02:06:38.214Z,99336.84
2022-08-10T02:09:11.110Z,99339.39
2022-08-10T02:12:06.581Z,99338.02
2022-08-10T02:14:34.137Z,99337.73
2022-08-10T02:17:06.968Z,99335.84
2022-08-10T02:19:38.387Z,99334.05
2022-08-10T02:22:34.948Z,99333.91
2022-08-10T02:25:00.175Z,99333.29
2022-08-10T02:27:31.512Z,99335.39
2022-08-10T02:30:01.798Z,99335.11
2022-08-10T02:32:37.969Z,99335.84
2022-08-10T02:35:13.281Z,99335.70
2022-08-10T02:37:59.088Z,99338.18
2022-08-10T02:45:14.107Z,99338.42
2022-08-10T02:45:18.215Z,99339.91
2022-08-10T02:46:20.967Z,99340.00
2022-08-10T02:49:00.424Z,99342.55
2022-08-10T02:52:06.890Z,99335.86
2022-08-10T02:54:38.606Z,99335.49
2022-08-10T02:57:19.307Z,99338.83
2022-08-10T02:59:52.524Z,99346.30
2022-08-10T03:02:29.657Z,99342.89
2022-08-10T03:05:06.159Z,99339.55
2022-08-10T03:07:45.115Z,99340.52
2022-08-10T03:10:18.603Z,99339.82
2022-08-10T03:12:51.680Z,99338.20
2022-08-10T03:15:22.185Z,99338.45
2022-08-10T03:17:58.207Z,99339.08
2022-08-10T03:20:37.119Z,99339.89
2022-08-10T03:23:11.065Z,99343.56
2022-08-10T03:25:40.362Z,99343.92
2022-08-10T03:28:10.402Z,99343.31
2022-08-10T03:30:48.391Z,99345.95
2022-08-10T03:33:19.632Z,99345.77
2022-08-10T03:36:42.400Z,99343.27
2022-08-10T03:38:39.885Z,99345.64
2022-08-10T03:41:16.087Z,99345.04
2022-08-10T03:43:48.550Z,99344.66
2022-08-10T03:46:21.916Z,99345.89
2022-08-10T03:48:54.171Z,99351.67
2022-08-10T03:51:25.214Z,99353.94
2022-08-10T03:54:03.353Z,99357.45
2022-08-10T03:56:37.405Z,99355.46
2022-08-10T03:59:09.380Z,99357.86
2022-08-10T04:02:52.878Z,99360.33
2022-08-10T04:04:27.588Z,99364.65
2022-08-10T04:06:58.556Z,99367.58
2022-08-10T04:09:55.496Z,99362.98
2022-08-10T04:12:18.668Z,99366.55
2022-08-10T04:14:51.498Z,99365.75
2022-08-10T04:18:01.451Z,99368.87
2022-08-10T04:20:19.120Z,99365.96
2022-08-10T04:22:51.493Z,99368.19
2022-08-10T04:25:20.855Z,99366.17
2022-08-10T04:27:54.522Z,99360.18
2022-08-10T04:30:23.756Z,99360.95
2022-08-10T04:32:59.429Z,99364.14
2022-08-10T04:35:29.661Z,99369.48
2022-08-10T04:38:01.398Z,99368.48
2022-08-10T04:40:31.351Z,99375.58
2022-08-10T04:43:11.676Z,99372.97
2022-08-10T04:45:49.512Z,99373.86
2022-08-10T04:48:42.550Z,99377.64
2022-08-10T04:51:18.981Z,99374.91
2022-08-10T04:54:03.792Z,99378.86
2022-08-10T04:56:36.878Z,99383.36
2022-08-10T04:59:04.955Z,99387.10
2022-08-10T05:02:21.821Z,99385.30
2022-08-10T05:04:36.587Z,99389.73
2022-08-10T05:07:10.675Z,99392.45
2022-08-10T05:10:04.002Z,99393.30
2022-08-10T05:12:29.149Z,99393.17
2022-08-10T05:14:58.143Z,99393.05
2022-08-10T05:17:26.892Z,99391.98
2022-08-10T05:20:02.019Z,99390.11
2022-08-10T05:22:36.548Z,99391.86
2022-08-10T05:25:08.035Z,99392.53
2022-08-10T05:27:37.737Z,99396.34
2022-08-10T05:30:09.799Z,99395.48
2022-08-10T05:32:57.958Z,99393.17
2022-08-10T05:36:17.788Z,99393.02
2022-08-10T05:39:43.121Z,99388.34
2022-08-10T06:00:37.437Z,99390.41
2022-08-10T06:10:03.829Z,99392.90
2022-08-10T06:12:54.355Z,99394.98
2022-08-10T06:16:20.332Z,99398.86
2022-08-10T06:18:50.109Z,99401.19
2022-08-10T06:21:20.872Z,99401.30
2022-08-10T06:23:52.039Z,99400.24
2022-08-10T06:26:21.790Z,99404.11
2022-08-10T06:29:03.595Z,99403.04
2022-08-10T06:31:49.065Z,99403.26
2022-08-10T06:34:25.838Z,99400.69
2022-08-10T06:36:57.996Z,99397.55
2022-08-10T06:39:34.020Z,99399.39
2022-08-10T06:42:17.918Z,99398.02
2022-08-10T06:44:56.642Z,99401.02
2022-08-10T06:47:32.419Z,99395.01
2022-08-10T06:50:08.862Z,99400.23
2022-08-10T06:52:42.096Z,99395.64
2022-08-10T06:55:16.925Z,99397.63
2022-08-10T06:58:00.167Z,99396.19
2022-08-10T07:00:34.392Z,99395.58
2022-08-10T07:03:09.535Z,99392.10
2022-08-10T07:05:43.003Z,99393.98
2022-08-10T07:08:14.511Z,99394.68
2022-08-10T07:10:46.364Z,99389.50
2022-08-10T07:14:16.366Z,99390.27
2022-08-10T07:16:33.487Z,99386.94
2022-08-10T07:19:03.135Z,99392.41
2022-08-10T07:21:33.546Z,99386.34
2022-08-10T07:25:09.756Z,99384.27
2022-08-10T07:27:58.534Z,99381.10
2022-08-10T07:30:32.928Z,99385.00
2022-08-10T07:33:21.362Z,99382.90
2022-08-10T07:36:54.594Z,99383.35
2022-08-10T07:40:02.088Z,99374.11
2022-08-10T07:42:16.403Z,99372.45
2022-08-10T07:44:47.966Z,99379.05
2022-08-10T07:47:52.522Z,99380.83
2022-08-10T07:50:13.872Z,99376.66
2022-08-10T07:52:44.606Z,99377.31
2022-08-10T07:55:18.102Z,99379.48
2022-08-10T07:57:50.927Z,99375.66
2022-08-10T08:00:21.233Z,99381.31
2022-08-10T08:02:53.582Z,99379.96
2022-08-10T08:05:57.619Z,99379.69
2022-08-10T08:08:15.504Z,99376.41
2022-08-10T08:10:47.732Z,99382.09
2022-08-10T08:13:20.425Z,99374.77
2022-08-10T08:16:18.096Z,99369.80
2022-08-10T08:18:42.010Z,99372.13
2022-08-10T08:24:09.603Z,99369.66
2022-08-10T08:24:30.915Z,99359.95
2022-08-10T08:27:03.706Z,99356.68
2022-08-10T08:29:36.023Z,99350.33
2022-08-10T08:32:06.370Z,99349.52
2022-08-10T08:34:38.633Z,99353.89
2022-08-10T08:37:10.168Z,99346.89
2022-08-10T08:39:40.493Z,99352.06
2022-08-10T08:42:26.876Z,99344.44
2022-08-10T08:45:27.453Z,99343.39
2022-08-10T08:48:21.475Z,99332.33
2022-08-10T08:51:08.629Z,99332.33
2022-08-10T08:54:07.047Z,99338.31
2022-08-10T08:56:49.579Z,99334.65
2022-08-10T08:59:37.499Z,99337.47
2022-08-10T09:02:29.372Z,99340.68
2022-08-10T09:05:08.758Z,99331.80
2022-08-10T09:08:00.700Z,99336.95
2022-08-10T09:10:43.327Z,99328.60
2022-08-10T09:13:18.626Z,99330.66
2022-08-10T09:16:16.073Z,99332.60
2022-08-10T09:18:53.102Z,99331.66
2022-08-10T09:21:34.270Z,99328.44
2022-08-10T09:24:20.499Z,99325.11
2022-08-10T09:26:51.607Z,99328.61
2022-08-10T09:29:26.423Z,99326.69
2022-08-10T09:42:15.008Z,99321.23
2022-08-10T09:50:07.028Z,99325.39
2022-08-10T10:03:04.016Z,99311.52
2022-08-10T10:06:02.689Z,99300.95
2022-08-10T10:18:14.961Z,99276.86
2022-08-10T10:25:20.614Z,99275.11
2022-08-10T10:38:04.669Z,99278.17
2022-08-10T10:42:04.004Z,99276.94
2022-08-10T10:45:23.423Z,99276.70
2022-08-10T10:48:38.977Z,99277.27
2022-08-10T10:51:18.759Z,99265.68
2022-08-10T10:53:59.543Z,99265.98
2022-08-10T10:56:39.667Z,99256.08
2022-08-10T10:59:53.834Z,99247.33
2022-08-10T11:02:35.982Z,99238.77
2022-08-10T11:05:21.320Z,99234.73
2022-08-10T11:07:57.057Z,99232.20
2022-08-10T11:10:34.678Z,99230.81
2022-08-10T11:14:27.565Z,99224.68
2022-08-10T11:16:24.745Z,99223.89
2022-08-10T11:19:07.580Z,99221.02
2022-08-10T11:21:49.428Z,99219.71
2022-08-10T11:24:47.147Z,99219.34
2022-08-10T11:27:23.234Z,99218.59
2022-08-10T11:30:05.205Z,99219.24
2022-08-10T11:32:42.863Z,99215.44
2022-08-10T11:35:34.811Z,99212.11
2022-08-10T11:38:31.230Z,99211.28
2022-08-10T11:42:05.229Z,99196.34
2022-08-10T11:44:08.238Z,99190.88
2022-08-10T11:46:44.819Z,99192.39
2022-08-10T11:49:21.956Z,99197.73
2022-08-10T11:51:56.782Z,99199.57
2022-08-10T11:54:31.853Z,99205.36
2022-08-10T11:57:02.772Z,99199.25
2022-08-10T11:59:57.959Z,99180.39
2022-08-10T12:02:33.327Z,99178.89
2022-08-10T12:05:10.609Z,99180.64
2022-08-10T12:08:55.032Z,99171.75
2022-08-10T12:10:40.192Z,99168.88
2022-08-10T12:13:14.980Z,99170.33
2022-08-10T12:15:56.834Z,99165.35
2022-08-10T12:18:32.692Z,99159.83
2022-08-10T12:21:09.599Z,99160.77
2022-08-10T12:24:03.117Z,99164.66
2022-08-10T12:26:39.591Z,99161.08
2022-08-10T12:29:14.566Z,99152.66
2022-08-10T12:31:50.802Z,99152.50
2022-08-10T12:34:29.188Z,99150.38
2022-08-10T12:37:07.526Z,99152.83
2022-08-10T12:39:50.345Z,99149.95
2022-08-10T12:42:38.873Z,99142.44
2022-08-10T12:45:21.086Z,99134.13
2022-08-10T12:47:56.570Z,99125.29
2022-08-10T13:00:01.649Z,99125.35
2022-08-10T13:08:28.803Z,99121.19
2022-08-10T13:20:45.154Z,99083.59
2022-08-10T13:28:36.157Z,99070.17
2022-08-10T13:33:06.705Z,99063.63
2022-08-10T13:39:58.226Z,99060.70
2022-08-10T13:42:33.909Z,99065.39
2022-08-10T13:45:08.365Z,99063.71
2022-08-10T13:47:48.971Z,99065.20
2022-08-10T13:50:34.574Z,99064.85
2022-08-10T13:53:13.990Z,99066.87
2022-08-10T13:55:55.170Z,99065.23
2022-08-10T13:58:31.100Z,99064.17
2022-08-10T14:05:51.098Z,99059.15
2022-08-10T14:08:23.007Z,99044.81
2022-08-10T14:11:43.587Z,99039.85
2022-08-10T14:28:02.237Z,99035.54
2022-08-10T14:30:30.989Z,99035.51
2022-08-10T14:33:03.687Z,99038.69
2022-08-10T14:36:22.521Z,99027.08
2022-08-10T14:38:31.786Z,99031.66
2022-08-10T14:41:03.813Z,99030.11
2022-08-10T14:43:40.415Z,99026.77
2022-08-10T14:46:17.718Z,99024.16
2022-08-10T14:48:53.583Z,99021.70
2022-08-10T14:51:44.064Z,99014.05
2022-08-10T14:54:17.629Z,99012.65
2022-08-10T14:56:48.821Z,99012.27
2022-08-10T14:59:18.909Z,99005.05
2022-08-10T15:02:00.992Z,99001.27
2022-08-10T15:04:46.491Z,98999.43
2022-08-10T15:07:21.534Z,98993.59
2022-08-10T15:10:00.335Z,98987.95
2022-08-10T15:12:34.194Z,98980.95
2022-08-10T15:15:07.416Z,98980.77
2022-08-10T15:17:41.426Z,98979.92
2022-08-10T15:20:20.676Z,98981.39
2022-08-10T15:22:55.773Z,98979.09
2022-08-10T15:25:28.089Z,98978.38
2022-08-10T15:28:06.064Z,98984.63
2022-08-10T15:30:41.947Z,98990.30
2022-08-10T15:34:03.613Z,98988.05
2022-08-10T15:36:41.702Z,98988.11
2022-08-10T15:40:26.000Z,98993.56
2022-08-10T15:42:08.972Z,98991.55
2022-08-10T15:44:41.727Z,98996.19
2022-08-10T15:47:15.521Z,98993.59
2022-08-10T15:49:50.037Z,98985.98
2022-08-10T15:52:39.743Z,98987.86
2022-08-10T15:55:43.803Z,98986.48
2022-08-10T15:58:12.799Z,98985.65
2022-08-10T16:00:49.298Z,98985.91
2022-08-10T16:03:26.383Z,98983.02
2022-08-10T16:10:54.295Z,98995.90
2022-08-10T16:18:44.712Z,99002.98
2022-08-10T16:29:55.967Z,99006.43
2022-08-10T16:33:54.086Z,99005.14
2022-08-10T16:45:14.801Z,99022.02
2022-08-10T16:52:39.623Z,99021.55
2022-08-10T17:08:47.982Z,99035.61
2022-08-10T17:20:56.569Z,99061.63
2022-08-10T17:28:21.212Z,99058.20
2022-08-10T17:31:58.861Z,99061.83
2022-08-10T17:35:47.016Z,99069.67
2022-08-10T17:47:15.480Z,99089.81
2022-08-10T17:54:44.049Z,99101.76
2022-08-10T18:11:08.596Z,99132.54
2022-08-10T18:37:08.007Z,99183.83
2022-08-10T19:52:20.228Z,99234.05
2022-08-10T19:55:35.050Z,99225.43
2022-08-10T20:25:31.187Z,99220.29
2022-08-10T20:46:50.751Z,99225.80
2022-08-10T21:04:13.291Z,99222.01
2022-08-10T21:11:49.944Z,99222.36
2022-08-10T21:37:07.865Z,99210.61
2022-08-10T22:02:52.831Z,99199.33
2022-08-10T22:11:37.401Z,99194.61
2022-08-10T22:50:47.413Z,99188.56
2022-08-10T22:54:30.950Z,99181.58
2022-08-10T23:14:59.260Z,99174.36
2022-08-10T23:22:56.170Z,99180.14
2022-08-10T23:27:37.639Z,99179.42
2022-08-10T23:32:06.773Z,99178.71
2022-08-10T23:36:33.764Z,99173.91
